createdAt,value
2022-09-29T00:01:00.765Z,15.80
2022-09-29T00:03:29.356Z,15.80
2022-09-29T00:06:01.488Z,15.80
2022-09-29T00:08:35.223Z,15.80
2022-09-29T00:11:11.149Z,15.70
2022-09-29T00:13:48.320Z,15.60
2022-09-29T00:19:15.108Z,15.40
2022-09-29T00:22:08.716Z,15.50
2022-09-29T00:24:48.997Z,15.50
2022-09-29T00:30:07.263Z,15.40
2022-09-29T00:40:10.508Z,15.30
2022-09-29T00:42:49.325Z,15.30
2022-09-29T00:45:23.985Z,15.20
2022-09-29T00:48:17.253Z,15.20
2022-09-29T00:50:49.898Z,15.20
2022-09-29T00:53:25.220Z,15.20
2022-09-29T00:56:09.917Z,15.30
2022-09-29T00:58:47.188Z,15.30
2022-09-29T01:01:20.633Z,15.40
2022-09-29T01:03:55.761Z,15.40
2022-09-29T01:06:59.614Z,15.40
2022-09-29T01:09:36.101Z,15.40
2022-09-29T01:12:04.627Z,15.50
2022-09-29T01:14:41.689Z,15.50
2022-09-29T01:17:12.332Z,15.50
2022-09-29T01:20:04.598Z,15.50
2022-09-29T01:22:53.742Z,15.50
2022-09-29T01:25:42.819Z,15.50
2022-09-29T01:31:56.950Z,15.60
2022-09-29T01:34:37.505Z,15.50
2022-09-29T01:37:26.603Z,15.50
2022-09-29T01:40:08.997Z,15.50
2022-09-29T01:42:44.968Z,15.50
2022-09-29T01:45:18.801Z,15.50
2022-09-29T01:47:56.553Z,15.50
2022-09-29T01:50:27.433Z,15.50
2022-09-29T01:53:08.339Z,15.50
2022-09-29T01:58:35.752Z,15.40
2022-09-29T02:01:09.654Z,15.40
2022-09-29T02:04:40.725Z,15.40
2022-09-29T02:07:15.240Z,15.40
2022-09-29T02:09:48.416Z,15.30
2022-09-29T02:12:24.365Z,15.30
2022-09-29T02:15:26.858Z,15.30
2022-09-29T02:17:57.973Z,15.30
2022-09-29T02:20:28.393Z,15.20
2022-09-29T02:22:58.039Z,15.20
2022-09-29T02:25:41.928Z,15.20
2022-09-29T02:28:20.980Z,15.10
2022-09-29T02:30:50.405Z,15.10
2022-09-29T02:33:32.714Z,15.10
2022-09-29T02:36:36.389Z,15.00
2022-09-29T02:39:17.695Z,15.00
2022-09-29T02:42:15.407Z,15.10
2022-09-29T02:48:27.884Z,15.20
2022-09-29T02:51:35.654Z,15.10
2022-09-29T02:54:17.076Z,15.10
2022-09-29T02:56:54.696Z,15.20
2022-09-29T02:59:46.717Z,15.10
2022-09-29T03:02:26.513Z,15.10
2022-09-29T03:04:55.295Z,15.10
2022-09-29T03:10:37.062Z,15.10
2022-09-29T03:13:30.602Z,15.10
2022-09-29T03:24:23.493Z,15.10
2022-09-29T03:27:40.297Z,15.10
2022-09-29T03:30:18.272Z,15.00
2022-09-29T03:32:52.591Z,14.90
2022-09-29T03:35:44.703Z,14.90
2022-09-29T03:38:14.569Z,14.90
2022-09-29T03:41:05.811Z,14.80
2022-09-29T03:43:57.474Z,14.80
2022-09-29T03:46:31.039Z,14.80
2022-09-29T03:49:01.363Z,14.80
2022-09-29T03:51:33.668Z,14.80
2022-09-29T03:54:05.738Z,14.70
2022-09-29T03:56:57.060Z,14.80
2022-09-29T03:59:27.644Z,14.70
2022-09-29T04:02:02.316Z,14.70
2022-09-29T04:04:38.021Z,14.70
2022-09-29T04:07:30.432Z,14.60
2022-09-29T04:10:12.114Z,14.60
2022-09-29T04:12:44.986Z,14.60
2022-09-29T04:15:14.157Z,14.50
2022-09-29T04:17:52.042Z,14.50
2022-09-29T04:20:20.772Z,14.40
2022-09-29T04:22:54.165Z,14.40
2022-09-29T04:25:35.462Z,14.40
2022-09-29T04:28:03.758Z,14.30
2022-09-29T04:30:35.119Z,14.40
2022-09-29T04:36:51.845Z,14.30
2022-09-29T04:39:23.466Z,14.30
2022-09-29T04:41:56.616Z,14.30
2022-09-29T04:44:27.711Z,14.20
2022-09-29T04:46:59.481Z,14.20
2022-09-29T04:52:20.630Z,14.20
2022-09-29T04:54:49.894Z,14.20
2022-09-29T05:01:09.507Z,14.20
2022-09-29T05:03:38.836Z,14.10
2022-09-29T05:10:14.230Z,14.10
2022-09-29T05:12:56.649Z,14.10
2022-09-29T05:15:30.643Z,14.10
2022-09-29T05:20:55.885Z,14.10
2022-09-29T05:24:04.618Z,14.10
2022-09-29T05:26:39.094Z,14.10
2022-09-29T05:29:13.933Z,14.10
2022-09-29T05:35:18.069Z,14.10
2022-09-29T05:38:19.119Z,14.10
2022-09-29T05:40:52.430Z,14.20
2022-09-29T05:43:21.765Z,14.20
2022-09-29T05:52:15.808Z,14.40
2022-09-29T05:54:58.849Z,14.50
2022-09-29T05:57:33.478Z,14.60
2022-09-29T06:00:08.130Z,14.80
2022-09-29T06:03:00.708Z,14.90
2022-09-29T06:08:26.281Z,15.00
2022-09-29T06:10:57.811Z,15.10
2022-09-29T06:13:35.206Z,15.10
2022-09-29T06:16:22.123Z,15.10
2022-09-29T06:19:31.301Z,15.00
2022-09-29T06:22:25.894Z,15.00
2022-09-29T06:24:57.449Z,15.00
2022-09-29T06:27:37.888Z,15.00
2022-09-29T06:30:12.720Z,15.00
2022-09-29T06:32:43.185Z,15.00
2022-09-29T06:35:31.404Z,15.00
2022-09-29T06:38:13.020Z,15.10
2022-09-29T06:40:40.476Z,15.00
2022-09-29T06:46:15.570Z,15.20
2022-09-29T06:48:42.714Z,15.30
2022-09-29T06:51:10.539Z,15.50
2022-09-29T06:53:38.850Z,15.60
2022-09-29T06:56:20.889Z,16.00
2022-09-29T06:58:47.949Z,16.20
2022-09-29T07:01:17.902Z,16.40
2022-09-29T07:03:46.669Z,16.60
2022-09-29T07:06:19.707Z,16.60
2022-09-29T07:08:46.897Z,16.50
2022-09-29T07:11:13.829Z,16.30
2022-09-29T07:13:40.692Z,16.20
2022-09-29T07:16:09.006Z,16.10
2022-09-29T07:18:46.846Z,16.00
2022-09-29T07:21:27.961Z,16.00
2022-09-29T07:23:58.718Z,15.90
2022-09-29T07:26:32.559Z,15.80
2022-09-29T07:29:15.755Z,15.80
2022-09-29T07:32:25.634Z,15.80
2022-09-29T07:34:55.134Z,15.80
2022-09-29T07:37:22.026Z,15.70
2022-09-29T07:39:48.841Z,15.70
2022-09-29T07:42:18.221Z,15.80
2022-09-29T07:44:55.042Z,15.90
2022-09-29T07:47:23.155Z,16.00
2022-09-29T07:49:50.539Z,15.90
2022-09-29T07:52:19.245Z,15.90
2022-09-29T07:55:09.349Z,15.80
2022-09-29T07:57:36.362Z,15.90
2022-09-29T08:00:06.373Z,16.00
2022-09-29T08:02:59.605Z,16.20
2022-09-29T08:11:28.729Z,16.50
2022-09-29T08:13:59.941Z,16.60
2022-09-29T08:16:41.457Z,16.80
2022-09-29T08:19:23.904Z,17.00
2022-09-29T08:22:05.125Z,17.20
2022-09-29T08:24:48.148Z,17.30
2022-09-29T08:27:19.123Z,17.10
2022-09-29T08:32:52.986Z,17.10
2022-09-29T08:39:00.166Z,17.30
2022-09-29T08:41:44.037Z,17.40
2022-09-29T08:44:38.252Z,17.50
2022-09-29T08:47:44.557Z,17.60
2022-09-29T08:50:28.904Z,17.70
2022-09-29T08:53:01.300Z,17.80
2022-09-29T09:35:18.253Z,18.10
2022-09-29T09:38:01.067Z,18.20
2022-09-29T09:41:00.143Z,18.40
2022-09-29T09:46:46.335Z,18.70
2022-09-29T09:55:29.346Z,19.30
2022-09-29T10:01:36.895Z,19.50
2022-09-29T10:04:33.842Z,19.60
2022-09-29T10:10:18.933Z,19.80
2022-09-29T10:20:38.463Z,20.60
2022-09-29T10:23:32.622Z,20.90
2022-09-29T10:30:09.852Z,21.20
2022-09-29T10:33:34.172Z,21.30
2022-09-29T10:36:10.418Z,21.50
2022-09-29T10:45:16.694Z,22.00
2022-09-29T10:48:12.074Z,21.70
2022-09-29T10:51:02.632Z,21.50
2022-09-29T10:53:54.245Z,21.30
2022-09-29T11:28:23.542Z,21.60
2022-09-29T11:31:21.566Z,21.90
2022-09-29T11:37:59.247Z,22.40
2022-09-29T11:46:58.107Z,22.50
2022-09-29T11:50:21.335Z,22.50
2022-09-29T12:00:17.915Z,22.60
2022-09-29T12:06:24.817Z,23.00
2022-09-29T12:09:06.607Z,22.90
2022-09-29T12:12:23.690Z,22.90
2022-09-29T12:17:59.164Z,22.50
2022-09-29T12:29:56.788Z,23.60
2022-09-29T12:32:49.914Z,23.40
2022-09-29T12:35:23.776Z,23.10
2022-09-29T12:38:07.457Z,22.80
2022-09-29T12:47:24.429Z,22.00
2022-09-29T12:50:25.314Z,21.80
2022-09-29T12:53:09.418Z,21.70
2022-09-29T12:56:19.606Z,21.50
2022-09-29T13:02:06.280Z,21.20
2022-09-29T13:05:08.095Z,21.10
2022-09-29T13:10:47.989Z,21.20
2022-09-29T13:13:17.942Z,21.40
2022-09-29T13:16:04.716Z,21.50
2022-09-29T13:25:05.080Z,21.70
2022-09-29T13:27:54.095Z,21.60
2022-09-29T13:30:38.173Z,21.40
2022-09-29T13:33:28.164Z,21.30
2022-09-29T13:46:38.622Z,21.40
2022-09-29T13:56:46.788Z,21.60
2022-09-29T14:00:08.800Z,21.80
2022-09-29T14:03:06.958Z,21.80
2022-09-29T14:05:49.179Z,21.80
2022-09-29T14:08:43.189Z,21.60
2022-09-29T14:11:17.786Z,21.60
2022-09-29T14:17:06.028Z,21.50
2022-09-29T14:20:09.539Z,21.70
2022-09-29T14:23:28.553Z,21.60
2022-09-29T14:35:44.655Z,21.30
2022-09-29T14:38:36.943Z,21.30
2022-09-29T15:14:43.094Z,20.20
2022-09-29T15:17:20.728Z,20.20
2022-09-29T15:23:07.174Z,20.50
2022-09-29T15:25:40.100Z,20.50
2022-09-29T15:28:22.846Z,20.50
2022-09-29T15:31:07.936Z,20.40
2022-09-29T15:33:45.598Z,20.40
2022-09-29T15:36:20.196Z,20.30
2022-09-29T15:38:51.101Z,20.20
2022-09-29T15:41:29.027Z,20.10
2022-09-29T15:43:58.910Z,19.90
2022-09-29T15:49:46.219Z,19.80
2022-09-29T15:58:08.684Z,19.50
2022-09-29T16:01:04.357Z,19.40
2022-09-29T16:04:17.645Z,19.30
2022-09-29T16:06:55.532Z,19.30
2022-09-29T16:09:36.529Z,19.20
2022-09-29T16:15:17.806Z,19.10
2022-09-29T16:17:48.562Z,19.10
2022-09-29T16:24:36.254Z,19.00
2022-09-29T16:34:04.360Z,19.00
2022-09-29T16:37:04.964Z,19.00
2022-09-29T16:39:50.349Z,18.90
2022-09-29T16:42:29.372Z,18.90
2022-09-29T16:45:12.247Z,18.90
2022-09-29T16:47:47.868Z,18.90
2022-09-29T16:50:16.591Z,18.80
2022-09-29T16:52:50.816Z,18.80
2022-09-29T16:55:38.176Z,18.80
2022-09-29T16:58:13.865Z,18.70
2022-09-29T17:00:45.241Z,18.70
2022-09-29T17:06:06.809Z,18.60
2022-09-29T17:08:35.394Z,18.60
2022-09-29T17:11:07.310Z,18.50
2022-09-29T17:13:35.713Z,18.50
2022-09-29T17:22:13.322Z,18.40
2022-09-29T17:24:44.207Z,18.30
2022-09-29T17:30:20.496Z,18.20
2022-09-29T17:36:14.565Z,18.20
2022-09-29T17:38:48.353Z,18.20
2022-09-29T17:41:45.834Z,18.10
2022-09-29T17:44:28.161Z,18.10
2022-09-29T17:47:17.439Z,18.10
2022-09-29T17:50:01.788Z,18.10
2022-09-29T17:52:38.834Z,18.10
2022-09-29T17:55:18.168Z,18.10
2022-09-29T18:01:26.897Z,18.10
2022-09-29T18:06:54.163Z,18.10
2022-09-29T18:09:32.047Z,18.10
2022-09-29T18:27:11.003Z,17.90
2022-09-29T18:33:20.151Z,17.90
2022-09-29T18:41:20.660Z,17.90
2022-09-29T18:43:50.072Z,17.90
2022-09-29T18:49:29.530Z,17.90
2022-09-29T18:56:26.867Z,17.80
2022-09-29T18:58:53.786Z,17.80
2022-09-29T19:01:35.684Z,17.70
2022-09-29T19:04:06.071Z,17.70
2022-09-29T19:06:35.264Z,17.60
2022-09-29T19:09:02.318Z,17.60
2022-09-29T19:11:34.144Z,17.60
2022-09-29T19:14:03.730Z,17.60
2022-09-29T19:16:33.426Z,17.50
2022-09-29T19:22:22.818Z,17.60
2022-09-29T19:28:06.664Z,17.60
2022-09-29T19:30:47.478Z,17.50
2022-09-29T19:33:32.569Z,17.40
2022-09-29T19:36:24.440Z,17.40
2022-09-29T19:42:10.676Z,17.30
2022-09-29T19:44:39.641Z,17.30
2022-09-29T19:53:47.264Z,17.30
2022-09-29T19:59:42.176Z,17.30
2022-09-29T20:03:09.143Z,17.30
2022-09-29T20:06:04.806Z,17.30
2022-09-29T20:18:09.985Z,17.30
2022-09-29T20:20:38.972Z,17.30
2022-09-29T20:23:10.280Z,17.30
2022-09-29T20:25:37.525Z,17.30
2022-09-29T20:28:06.549Z,17.20
2022-09-29T20:30:35.576Z,17.20
2022-09-29T20:33:07.647Z,17.20
2022-09-29T20:35:40.806Z,17.20
2022-09-29T20:38:08.524Z,17.20
2022-09-29T20:40:42.815Z,17.20
2022-09-29T20:43:15.529Z,17.20
2022-09-29T20:45:43.854Z,17.20
2022-09-29T20:48:19.267Z,17.20
2022-09-29T20:50:50.902Z,17.20
2022-09-29T20:53:20.783Z,17.30
2022-09-29T20:55:49.552Z,17.30
2022-09-29T21:04:32.842Z,17.10
2022-09-29T21:07:08.251Z,17.10
2022-09-29T21:09:43.434Z,17.10
2022-09-29T21:12:15.504Z,17.10
2022-09-29T21:14:48.465Z,17.10
2022-09-29T21:23:13.822Z,17.10
2022-09-29T21:25:46.319Z,17.10
2022-09-29T21:28:21.027Z,17.00
2022-09-29T21:31:25.593Z,17.00
2022-09-29T21:34:03.894Z,17.00
2022-09-29T21:36:39.320Z,17.00
2022-09-29T21:42:52.214Z,16.70
2022-09-29T21:45:29.546Z,16.70
2022-09-29T21:48:09.390Z,16.70
2022-09-29T21:50:37.824Z,16.70
2022-09-29T21:53:04.946Z,16.60
2022-09-29T21:55:36.113Z,16.60
2022-09-29T21:58:26.110Z,16.50
2022-09-29T22:00:54.056Z,16.50
2022-09-29T22:03:21.727Z,16.40
2022-09-29T22:05:50.945Z,16.40
2022-09-29T22:08:28.481Z,16.30
2022-09-29T22:11:06.472Z,16.20
2022-09-29T22:13:35.361Z,16.30
2022-09-29T22:16:08.152Z,16.20
2022-09-29T22:18:42.839Z,16.30
2022-09-29T22:24:20.030Z,16.20
2022-09-29T22:26:46.958Z,16.20
2022-09-29T22:29:16.850Z,16.20
2022-09-29T22:31:43.799Z,16.20
2022-09-29T22:34:17.592Z,16.20
2022-09-29T22:36:44.726Z,16.20
2022-09-29T22:39:34.538Z,16.20
2022-09-29T22:42:17.220Z,16.20
2022-09-29T22:44:45.079Z,16.20
2022-09-29T22:47:16.139Z,16.20
2022-09-29T22:49:43.014Z,16.20
2022-09-29T22:54:57.312Z,16.20
2022-09-29T22:57:27.741Z,16.20
2022-09-29T23:02:40.347Z,16.20
2022-09-29T23:05:13.356Z,16.10
2022-09-29T23:07:41.829Z,16.10
2022-09-29T23:10:19.707Z,16.00
2022-09-29T23:12:54.900Z,16.10
2022-09-29T23:15:24.479Z,16.00
2022-09-29T23:17:52.367Z,16.00
2022-09-29T23:20:23.145Z,15.90
2022-09-29T23:23:33.001Z,16.00
2022-09-29T23:26:01.871Z,16.00
2022-09-29T23:28:59.538Z,15.90
2022-09-29T23:32:01.343Z,15.90
2022-09-29T23:34:55.961Z,15.90
2022-09-29T23:38:03.415Z,15.80
2022-09-29T23:40:54.185Z,15.90
2022-09-29T23:43:51.763Z,15.90
2022-09-29T23:47:05.389Z,15.90
2022-09-29T23:52:54.038Z,15.90
2022-09-29T23:55:27.084Z,15.90
